sensor_id;sensor_type;location;lat;lon;timestamp;P1;durP1;ratioP1;P2;durP2;ratioP2
51489;SDS011;57752;53.574;9.736;2023-08-07T00:01:25;9.85;;;3.83;;
51489;SDS011;57752;53.574;9.736;2023-08-07T00:06:25;10.70;;;3.80;;
51489;SDS011;57752;53.574;9.736;2023-08-07T00:11:25;12.10;;;3.83;;
51489;SDS011;57752;53.574;9.736;2023-08-07T00:16:27;11.30;;;3.58;;
51489;SDS011;57752;53.574;9.736;2023-08-07T00:21:27;10.00;;;3.60;;
51489;SDS011;57752;53.574;9.736;2023-08-07T00:26:28;10.63;;;3.60;;
51489;SDS011;57752;53.574;9.736;2023-08-07T00:31:28;10.57;;;3.92;;
51489;SDS011;57752;53.574;9.736;2023-08-07T00:36:31;15.57;;;3.90;;
51489;SDS011;57752;53.574;9.736;2023-08-07T00:41:34;11.10;;;3.55;;
51489;SDS011;57752;53.574;9.736;2023-08-07T00:46:34;11.10;;;3.78;;
51489;SDS011;57752;53.574;9.736;2023-08-07T00:51:35;10.02;;;3.60;;
51489;SDS011;57752;53.574;9.736;2023-08-07T00:56:35;11.10;;;3.60;;
51489;SDS011;57752;53.574;9.736;2023-08-07T01:01:36;11.00;;;3.80;;
51489;SDS011;57752;53.574;9.736;2023-08-07T01:06:37;11.40;;;3.67;;
51489;SDS011;57752;53.574;9.736;2023-08-07T01:11:48;12.52;;;4.20;;
51489;SDS011;57752;53.574;9.736;2023-08-07T01:16:55;12.83;;;3.93;;
51489;SDS011;57752;53.574;9.736;2023-08-07T01:22:11;14.20;;;4.20;;
51489;SDS011;57752;53.574;9.736;2023-08-07T01:37:38;13.10;;;3.95;;
51489;SDS011;57752;53.574;9.736;2023-08-07T01:42:39;12.25;;;3.85;;
51489;SDS011;57752;53.574;9.736;2023-08-07T01:47:39;11.07;;;3.83;;
51489;SDS011;57752;53.574;9.736;2023-08-07T01:52:40;12.70;;;4.00;;
51489;SDS011;57752;53.574;9.736;2023-08-07T01:57:40;11.68;;;3.63;;
51489;SDS011;57752;53.574;9.736;2023-08-07T02:02:40;9.73;;;3.30;;
51489;SDS011;57752;53.574;9.736;2023-08-07T02:07:40;11.18;;;3.22;;
51489;SDS011;57752;53.574;9.736;2023-08-07T02:12:41;11.88;;;3.42;;
51489;SDS011;57752;53.574;9.736;2023-08-07T02:17:41;11.20;;;3.70;;
51489;SDS011;57752;53.574;9.736;2023-08-07T02:22:42;9.68;;;3.13;;
51489;SDS011;57752;53.574;9.736;2023-08-07T02:27:42;11.80;;;3.88;;
51489;SDS011;57752;53.574;9.736;2023-08-07T02:32:42;12.32;;;3.40;;
51489;SDS011;57752;53.574;9.736;2023-08-07T02:37:44;11.70;;;3.28;;
51489;SDS011;57752;53.574;9.736;2023-08-07T02:42:44;10.40;;;3.30;;
51489;SDS011;57752;53.574;9.736;2023-08-07T02:47:44;8.60;;;2.95;;
51489;SDS011;57752;53.574;9.736;2023-08-07T02:52:45;13.57;;;3.30;;
51489;SDS011;57752;53.574;9.736;2023-08-07T02:57:45;9.47;;;3.00;;
51489;SDS011;57752;53.574;9.736;2023-08-07T03:02:45;10.77;;;3.28;;
51489;SDS011;57752;53.574;9.736;2023-08-07T03:07:45;9.73;;;3.38;;
51489;SDS011;57752;53.574;9.736;2023-08-07T03:12:45;10.50;;;3.58;;
51489;SDS011;57752;53.574;9.736;2023-08-07T03:17:46;10.30;;;3.47;;
51489;SDS011;57752;53.574;9.736;2023-08-07T03:22:46;12.55;;;3.35;;
51489;SDS011;57752;53.574;9.736;2023-08-07T03:27:46;11.15;;;3.30;;
51489;SDS011;57752;53.574;9.736;2023-08-07T03:32:46;12.13;;;3.60;;
51489;SDS011;57752;53.574;9.736;2023-08-07T03:37:46;10.38;;;3.42;;
51489;SDS011;57752;53.574;9.736;2023-08-07T03:42:46;11.43;;;3.78;;
51489;SDS011;57752;53.574;9.736;2023-08-07T03:47:46;10.98;;;3.60;;
51489;SDS011;57752;53.574;9.736;2023-08-07T03:52:47;12.98;;;4.10;;
51489;SDS011;57752;53.574;9.736;2023-08-07T03:57:47;11.82;;;3.75;;
51489;SDS011;57752;53.574;9.736;2023-08-07T04:02:47;11.38;;;3.83;;
51489;SDS011;57752;53.574;9.736;2023-08-07T04:07:47;13.55;;;4.00;;
51489;SDS011;57752;53.574;9.736;2023-08-07T04:12:47;14.65;;;4.20;;
51489;SDS011;57752;53.574;9.736;2023-08-07T04:17:47;13.48;;;4.30;;
51489;SDS011;57752;53.574;9.736;2023-08-07T04:22:48;15.65;;;4.30;;
51489;SDS011;57752;53.574;9.736;2023-08-07T04:27:48;13.48;;;3.70;;
51489;SDS011;57752;53.574;9.736;2023-08-07T04:32:48;12.00;;;4.00;;
51489;SDS011;57752;53.574;9.736;2023-08-07T04:37:49;12.65;;;3.70;;
51489;SDS011;57752;53.574;9.736;2023-08-07T04:42:49;12.40;;;4.00;;
51489;SDS011;57752;53.574;9.736;2023-08-07T04:47:49;11.82;;;3.88;;
51489;SDS011;57752;53.574;9.736;2023-08-07T04:52:49;13.05;;;4.50;;
51489;SDS011;57752;53.574;9.736;2023-08-07T04:57:49;15.27;;;4.70;;
51489;SDS011;57752;53.574;9.736;2023-08-07T05:02:50;17.65;;;4.53;;
51489;SDS011;57752;53.574;9.736;2023-08-07T05:07:51;13.60;;;4.50;;
51489;SDS011;57752;53.574;9.736;2023-08-07T05:12:51;13.63;;;4.13;;
51489;SDS011;57752;53.574;9.736;2023-08-07T05:18:00;16.23;;;4.43;;
51489;SDS011;57752;53.574;9.736;2023-08-07T05:23:00;11.70;;;3.92;;
51489;SDS011;57752;53.574;9.736;2023-08-07T05:28:00;12.70;;;4.18;;
51489;SDS011;57752;53.574;9.736;2023-08-07T05:33:00;13.15;;;4.38;;
51489;SDS011;57752;53.574;9.736;2023-08-07T05:38:01;14.23;;;4.07;;
51489;SDS011;57752;53.574;9.736;2023-08-07T05:43:01;15.15;;;4.30;;
51489;SDS011;57752;53.574;9.736;2023-08-07T05:48:01;15.95;;;4.18;;
51489;SDS011;57752;53.574;9.736;2023-08-07T05:53:01;14.57;;;3.95;;
51489;SDS011;57752;53.574;9.736;2023-08-07T05:58:02;16.60;;;3.65;;
51489;SDS011;57752;53.574;9.736;2023-08-07T06:03:02;11.68;;;3.45;;
51489;SDS011;57752;53.574;9.736;2023-08-07T06:08:02;12.93;;;3.65;;
51489;SDS011;57752;53.574;9.736;2023-08-07T06:13:02;12.40;;;3.72;;
51489;SDS011;57752;53.574;9.736;2023-08-07T06:18:03;18.55;;;4.15;;
51489;SDS011;57752;53.574;9.736;2023-08-07T06:23:03;15.80;;;3.85;;
51489;SDS011;57752;53.574;9.736;2023-08-07T06:28:03;12.25;;;3.90;;
51489;SDS011;57752;53.574;9.736;2023-08-07T06:33:04;15.85;;;4.10;;
51489;SDS011;57752;53.574;9.736;2023-08-07T06:38:04;13.43;;;4.15;;
51489;SDS011;57752;53.574;9.736;2023-08-07T06:43:04;17.33;;;4.07;;
51489;SDS011;57752;53.574;9.736;2023-08-07T06:48:04;22.75;;;4.32;;
51489;SDS011;57752;53.574;9.736;2023-08-07T06:53:05;16.88;;;4.45;;
51489;SDS011;57752;53.574;9.736;2023-08-07T06:58:05;18.65;;;4.50;;
51489;SDS011;57752;53.574;9.736;2023-08-07T07:03:05;18.38;;;5.00;;
51489;SDS011;57752;53.574;9.736;2023-08-07T07:08:07;15.97;;;4.20;;
51489;SDS011;57752;53.574;9.736;2023-08-07T07:13:07;17.90;;;4.20;;
51489;SDS011;57752;53.574;9.736;2023-08-07T07:18:09;27.52;;;5.25;;
51489;SDS011;57752;53.574;9.736;2023-08-07T07:23:09;20.25;;;4.10;;
51489;SDS011;57752;53.574;9.736;2023-08-07T07:28:09;24.73;;;4.88;;
51489;SDS011;57752;53.574;9.736;2023-08-07T07:33:09;23.70;;;4.38;;
51489;SDS011;57752;53.574;9.736;2023-08-07T07:38:09;22.70;;;4.85;;
51489;SDS011;57752;53.574;9.736;2023-08-07T07:43:10;27.95;;;5.07;;
51489;SDS011;57752;53.574;9.736;2023-08-07T07:48:10;19.42;;;4.78;;
51489;SDS011;57752;53.574;9.736;2023-08-07T07:53:10;16.15;;;4.13;;
51489;SDS011;57752;53.574;9.736;2023-08-07T07:58:10;18.02;;;4.80;;
51489;SDS011;57752;53.574;9.736;2023-08-07T08:03:11;20.30;;;4.90;;
51489;SDS011;57752;53.574;9.736;2023-08-07T08:08:12;23.95;;;5.40;;
51489;SDS011;57752;53.574;9.736;2023-08-07T08:13:12;18.15;;;5.00;;
51489;SDS011;57752;53.574;9.736;2023-08-07T08:18:12;23.80;;;5.30;;
51489;SDS011;57752;53.574;9.736;2023-08-07T08:23:12;21.73;;;6.00;;
51489;SDS011;57752;53.574;9.736;2023-08-07T08:28:13;20.80;;;5.10;;
51489;SDS011;57752;53.574;9.736;2023-08-07T08:33:13;21.27;;;5.60;;
51489;SDS011;57752;53.574;9.736;2023-08-07T08:38:14;22.65;;;5.13;;
51489;SDS011;57752;53.574;9.736;2023-08-07T08:43:16;18.25;;;4.43;;
51489;SDS011;57752;53.574;9.736;2023-08-07T08:48:20;18.90;;;4.72;;
51489;SDS011;57752;53.574;9.736;2023-08-07T08:53:23;17.65;;;4.20;;
51489;SDS011;57752;53.574;9.736;2023-08-07T08:58:24;17.17;;;4.00;;
51489;SDS011;57752;53.574;9.736;2023-08-07T09:03:24;15.80;;;4.03;;
51489;SDS011;57752;53.574;9.736;2023-08-07T09:08:25;19.60;;;3.90;;
51489;SDS011;57752;53.574;9.736;2023-08-07T09:13:26;15.83;;;4.13;;
51489;SDS011;57752;53.574;9.736;2023-08-07T09:18:28;20.40;;;3.88;;
51489;SDS011;57752;53.574;9.736;2023-08-07T09:23:28;17.10;;;3.70;;
51489;SDS011;57752;53.574;9.736;2023-08-07T09:28:28;14.88;;;4.05;;
51489;SDS011;57752;53.574;9.736;2023-08-07T09:33:29;14.15;;;3.97;;
51489;SDS011;57752;53.574;9.736;2023-08-07T09:38:30;18.42;;;3.70;;
51489;SDS011;57752;53.574;9.736;2023-08-07T09:43:36;17.42;;;4.05;;
51489;SDS011;57752;53.574;9.736;2023-08-07T09:48:40;17.80;;;4.10;;
51489;SDS011;57752;53.574;9.736;2023-08-07T09:53:40;17.95;;;3.88;;
51489;SDS011;57752;53.574;9.736;2023-08-07T09:58:43;16.00;;;3.88;;
51489;SDS011;57752;53.574;9.736;2023-08-07T10:03:46;21.85;;;4.60;;
51489;SDS011;57752;53.574;9.736;2023-08-07T10:08:46;15.75;;;3.97;;
51489;SDS011;57752;53.574;9.736;2023-08-07T10:13:47;15.55;;;4.20;;
51489;SDS011;57752;53.574;9.736;2023-08-07T10:18:47;16.43;;;3.80;;
51489;SDS011;57752;53.574;9.736;2023-08-07T10:23:48;16.85;;;3.47;;
51489;SDS011;57752;53.574;9.736;2023-08-07T10:28:49;23.63;;;4.50;;
51489;SDS011;57752;53.574;9.736;2023-08-07T10:33:51;19.00;;;4.13;;
51489;SDS011;57752;53.574;9.736;2023-08-07T10:38:59;13.63;;;4.32;;
51489;SDS011;57752;53.574;9.736;2023-08-07T10:44:11;14.80;;;3.90;;
51489;SDS011;57752;53.574;9.736;2023-08-07T10:54:38;14.93;;;3.92;;
51489;SDS011;57752;53.574;9.736;2023-08-07T11:04:59;17.58;;;3.63;;
51489;SDS011;57752;53.574;9.736;2023-08-07T11:10:00;14.18;;;3.25;;
51489;SDS011;57752;53.574;9.736;2023-08-07T11:15:00;19.58;;;4.13;;
51489;SDS011;57752;53.574;9.736;2023-08-07T11:20:00;17.85;;;4.32;;
51489;SDS011;57752;53.574;9.736;2023-08-07T11:25:01;19.15;;;4.18;;
51489;SDS011;57752;53.574;9.736;2023-08-07T11:30:01;14.90;;;3.88;;
51489;SDS011;57752;53.574;9.736;2023-08-07T11:35:02;19.90;;;4.38;;
51489;SDS011;57752;53.574;9.736;2023-08-07T11:40:03;18.48;;;4.05;;
51489;SDS011;57752;53.574;9.736;2023-08-07T11:45:03;21.20;;;4.28;;
51489;SDS011;57752;53.574;9.736;2023-08-07T11:50:04;17.13;;;5.32;;
51489;SDS011;57752;53.574;9.736;2023-08-07T11:55:05;19.95;;;4.63;;
51489;SDS011;57752;53.574;9.736;2023-08-07T12:00:07;19.70;;;4.33;;
51489;SDS011;57752;53.574;9.736;2023-08-07T12:05:13;18.92;;;4.75;;
51489;SDS011;57752;53.574;9.736;2023-08-07T12:10:13;13.25;;;3.97;;
51489;SDS011;57752;53.574;9.736;2023-08-07T12:15:13;16.95;;;4.30;;
51489;SDS011;57752;53.574;9.736;2023-08-07T12:20:16;14.75;;;4.25;;
51489;SDS011;57752;53.574;9.736;2023-08-07T12:25:16;20.15;;;4.70;;
51489;SDS011;57752;53.574;9.736;2023-08-07T12:30:16;15.07;;;3.50;;
51489;SDS011;57752;53.574;9.736;2023-08-07T12:35:16;14.75;;;3.90;;
51489;SDS011;57752;53.574;9.736;2023-08-07T12:40:17;26.83;;;5.05;;
51489;SDS011;57752;53.574;9.736;2023-08-07T12:45:20;15.70;;;4.32;;
51489;SDS011;57752;53.574;9.736;2023-08-07T12:50:20;27.77;;;5.13;;
51489;SDS011;57752;53.574;9.736;2023-08-07T12:55:20;18.55;;;4.85;;
51489;SDS011;57752;53.574;9.736;2023-08-07T13:00:21;16.13;;;4.30;;
51489;SDS011;57752;53.574;9.736;2023-08-07T13:05:22;15.93;;;3.97;;
51489;SDS011;57752;53.574;9.736;2023-08-07T13:10:22;14.75;;;3.97;;
51489;SDS011;57752;53.574;9.736;2023-08-07T13:15:23;13.98;;;3.35;;
51489;SDS011;57752;53.574;9.736;2023-08-07T13:20:25;17.60;;;4.10;;
51489;SDS011;57752;53.574;9.736;2023-08-07T13:25:26;16.20;;;3.97;;
51489;SDS011;57752;53.574;9.736;2023-08-07T13:30:26;14.38;;;4.20;;
51489;SDS011;57752;53.574;9.736;2023-08-07T13:35:28;14.98;;;4.00;;
51489;SDS011;57752;53.574;9.736;2023-08-07T13:40:29;14.55;;;4.30;;
51489;SDS011;57752;53.574;9.736;2023-08-07T13:45:29;15.82;;;3.92;;
51489;SDS011;57752;53.574;9.736;2023-08-07T13:50:29;16.25;;;3.67;;
51489;SDS011;57752;53.574;9.736;2023-08-07T13:55:29;13.63;;;3.63;;
51489;SDS011;57752;53.574;9.736;2023-08-07T14:00:30;17.27;;;3.95;;
51489;SDS011;57752;53.574;9.736;2023-08-07T14:05:30;15.45;;;4.05;;
51489;SDS011;57752;53.574;9.736;2023-08-07T14:10:30;19.30;;;4.25;;
51489;SDS011;57752;53.574;9.736;2023-08-07T14:15:30;18.50;;;4.18;;
51489;SDS011;57752;53.574;9.736;2023-08-07T14:20:30;16.75;;;4.00;;
51489;SDS011;57752;53.574;9.736;2023-08-07T14:25:30;12.02;;;3.70;;
51489;SDS011;57752;53.574;9.736;2023-08-07T14:30:30;15.23;;;4.50;;
51489;SDS011;57752;53.574;9.736;2023-08-07T14:35:31;14.75;;;3.83;;
51489;SDS011;57752;53.574;9.736;2023-08-07T14:40:31;16.20;;;3.80;;
51489;SDS011;57752;53.574;9.736;2023-08-07T14:45:31;14.57;;;3.88;;
51489;SDS011;57752;53.574;9.736;2023-08-07T14:50:31;16.00;;;4.10;;
51489;SDS011;57752;53.574;9.736;2023-08-07T14:55:31;15.20;;;4.00;;
51489;SDS011;57752;53.574;9.736;2023-08-07T15:00:32;15.27;;;4.15;;
51489;SDS011;57752;53.574;9.736;2023-08-07T15:05:32;13.57;;;3.55;;
51489;SDS011;57752;53.574;9.736;2023-08-07T15:10:32;13.15;;;3.30;;
51489;SDS011;57752;53.574;9.736;2023-08-07T15:15:33;17.02;;;3.85;;
51489;SDS011;57752;53.574;9.736;2023-08-07T15:20:33;14.65;;;3.65;;
51489;SDS011;57752;53.574;9.736;2023-08-07T15:25:33;16.95;;;4.28;;
51489;SDS011;57752;53.574;9.736;2023-08-07T15:30:34;14.70;;;3.60;;
51489;SDS011;57752;53.574;9.736;2023-08-07T15:35:34;16.77;;;3.88;;
51489;SDS011;57752;53.574;9.736;2023-08-07T15:40:34;14.38;;;3.88;;
51489;SDS011;57752;53.574;9.736;2023-08-07T15:45:34;20.05;;;4.38;;
51489;SDS011;57752;53.574;9.736;2023-08-07T15:50:35;18.33;;;4.57;;
51489;SDS011;57752;53.574;9.736;2023-08-07T15:55:36;15.90;;;4.47;;
51489;SDS011;57752;53.574;9.736;2023-08-07T16:00:37;16.02;;;4.15;;
51489;SDS011;57752;53.574;9.736;2023-08-07T16:05:37;13.38;;;4.00;;
51489;SDS011;57752;53.574;9.736;2023-08-07T16:10:38;17.88;;;4.53;;
51489;SDS011;57752;53.574;9.736;2023-08-07T16:15:38;21.08;;;4.90;;
51489;SDS011;57752;53.574;9.736;2023-08-07T16:20:38;16.00;;;4.80;;
51489;SDS011;57752;53.574;9.736;2023-08-07T16:25:39;19.75;;;4.90;;
51489;SDS011;57752;53.574;9.736;2023-08-07T16:30:39;16.73;;;4.25;;
51489;SDS011;57752;53.574;9.736;2023-08-07T16:35:40;19.25;;;4.32;;
51489;SDS011;57752;53.574;9.736;2023-08-07T16:40:40;17.42;;;4.82;;
51489;SDS011;57752;53.574;9.736;2023-08-07T16:45:40;15.30;;;4.13;;
51489;SDS011;57752;53.574;9.736;2023-08-07T16:50:40;16.27;;;4.13;;
51489;SDS011;57752;53.574;9.736;2023-08-07T16:55:40;17.35;;;3.95;;
51489;SDS011;57752;53.574;9.736;2023-08-07T17:00:40;17.20;;;4.78;;
51489;SDS011;57752;53.574;9.736;2023-08-07T17:05:41;15.40;;;4.40;;
51489;SDS011;57752;53.574;9.736;2023-08-07T17:10:41;18.65;;;3.85;;
51489;SDS011;57752;53.574;9.736;2023-08-07T17:15:41;14.85;;;4.18;;
51489;SDS011;57752;53.574;9.736;2023-08-07T17:20:42;16.23;;;3.92;;
51489;SDS011;57752;53.574;9.736;2023-08-07T17:25:42;16.90;;;4.35;;
51489;SDS011;57752;53.574;9.736;2023-08-07T17:30:43;15.35;;;3.90;;
51489;SDS011;57752;53.574;9.736;2023-08-07T17:35:43;15.40;;;3.80;;
51489;SDS011;57752;53.574;9.736;2023-08-07T17:40:43;17.13;;;4.45;;
51489;SDS011;57752;53.574;9.736;2023-08-07T17:45:43;22.85;;;5.07;;
51489;SDS011;57752;53.574;9.736;2023-08-07T17:50:43;17.25;;;5.35;;
51489;SDS011;57752;53.574;9.736;2023-08-07T17:55:43;17.92;;;4.63;;
51489;SDS011;57752;53.574;9.736;2023-08-07T18:00:43;15.55;;;4.07;;
51489;SDS011;57752;53.574;9.736;2023-08-07T18:05:44;17.65;;;4.40;;
51489;SDS011;57752;53.574;9.736;2023-08-07T18:10:44;16.30;;;4.22;;
51489;SDS011;57752;53.574;9.736;2023-08-07T18:15:45;17.52;;;4.80;;
51489;SDS011;57752;53.574;9.736;2023-08-07T18:20:45;21.23;;;5.47;;
51489;SDS011;57752;53.574;9.736;2023-08-07T18:25:45;17.67;;;4.88;;
51489;SDS011;57752;53.574;9.736;2023-08-07T18:30:45;22.35;;;5.55;;
51489;SDS011;57752;53.574;9.736;2023-08-07T18:35:45;17.95;;;5.53;;
51489;SDS011;57752;53.574;9.736;2023-08-07T18:40:45;21.85;;;5.38;;
51489;SDS011;57752;53.574;9.736;2023-08-07T18:45:46;19.05;;;5.13;;
51489;SDS011;57752;53.574;9.736;2023-08-07T18:50:46;21.30;;;6.18;;
51489;SDS011;57752;53.574;9.736;2023-08-07T18:55:46;19.00;;;5.90;;
51489;SDS011;57752;53.574;9.736;2023-08-07T19:00:46;18.98;;;4.93;;
51489;SDS011;57752;53.574;9.736;2023-08-07T19:05:47;24.52;;;5.30;;
51489;SDS011;57752;53.574;9.736;2023-08-07T19:10:47;24.25;;;6.15;;
51489;SDS011;57752;53.574;9.736;2023-08-07T19:15:47;20.83;;;5.28;;
51489;SDS011;57752;53.574;9.736;2023-08-07T19:20:47;22.85;;;4.80;;
51489;SDS011;57752;53.574;9.736;2023-08-07T19:25:47;20.75;;;4.93;;
51489;SDS011;57752;53.574;9.736;2023-08-07T19:30:47;19.88;;;5.13;;
51489;SDS011;57752;53.574;9.736;2023-08-07T19:35:48;17.40;;;5.27;;
51489;SDS011;57752;53.574;9.736;2023-08-07T19:40:48;19.67;;;5.00;;
51489;SDS011;57752;53.574;9.736;2023-08-07T19:45:48;21.30;;;5.67;;
51489;SDS011;57752;53.574;9.736;2023-08-07T19:50:51;19.05;;;4.97;;
51489;SDS011;57752;53.574;9.736;2023-08-07T19:55:51;18.33;;;5.00;;
51489;SDS011;57752;53.574;9.736;2023-08-07T20:00:51;19.20;;;4.55;;
51489;SDS011;57752;53.574;9.736;2023-08-07T20:05:51;19.05;;;4.75;;
51489;SDS011;57752;53.574;9.736;2023-08-07T20:10:52;16.38;;;4.68;;
51489;SDS011;57752;53.574;9.736;2023-08-07T20:15:52;17.08;;;4.82;;
51489;SDS011;57752;53.574;9.736;2023-08-07T20:20:52;19.52;;;4.70;;
51489;SDS011;57752;53.574;9.736;2023-08-07T20:25:54;17.33;;;4.63;;
51489;SDS011;57752;53.574;9.736;2023-08-07T20:30:54;20.10;;;4.80;;
51489;SDS011;57752;53.574;9.736;2023-08-07T20:35:55;19.67;;;5.07;;
51489;SDS011;57752;53.574;9.736;2023-08-07T20:40:55;18.15;;;4.90;;
51489;SDS011;57752;53.574;9.736;2023-08-07T20:45:55;17.65;;;4.80;;
51489;SDS011;57752;53.574;9.736;2023-08-07T20:50:55;20.92;;;4.40;;
51489;SDS011;57752;53.574;9.736;2023-08-07T20:55:55;17.48;;;4.05;;
51489;SDS011;57752;53.574;9.736;2023-08-07T21:00:56;18.25;;;4.32;;
51489;SDS011;57752;53.574;9.736;2023-08-07T21:05:56;14.18;;;4.63;;
51489;SDS011;57752;53.574;9.736;2023-08-07T21:10:57;37.85;;;4.55;;
51489;SDS011;57752;53.574;9.736;2023-08-07T21:15:58;17.13;;;3.58;;
51489;SDS011;57752;53.574;9.736;2023-08-07T21:20:58;13.15;;;3.80;;
51489;SDS011;57752;53.574;9.736;2023-08-07T21:25:58;14.15;;;3.63;;
51489;SDS011;57752;53.574;9.736;2023-08-07T21:30:58;14.00;;;3.40;;
51489;SDS011;57752;53.574;9.736;2023-08-07T21:35:58;13.73;;;3.83;;
51489;SDS011;57752;53.574;9.736;2023-08-07T21:40:58;14.52;;;3.80;;
51489;SDS011;57752;53.574;9.736;2023-08-07T21:45:59;13.05;;;3.95;;
51489;SDS011;57752;53.574;9.736;2023-08-07T21:50:59;14.10;;;3.25;;
51489;SDS011;57752;53.574;9.736;2023-08-07T21:55:59;14.52;;;3.30;;
51489;SDS011;57752;53.574;9.736;2023-08-07T22:00:59;14.48;;;3.63;;
51489;SDS011;57752;53.574;9.736;2023-08-07T22:06:00;13.45;;;3.38;;
51489;SDS011;57752;53.574;9.736;2023-08-07T22:11:00;14.10;;;3.85;;
51489;SDS011;57752;53.574;9.736;2023-08-07T22:16:01;14.05;;;3.60;;
51489;SDS011;57752;53.574;9.736;2023-08-07T22:21:01;16.13;;;3.45;;
51489;SDS011;57752;53.574;9.736;2023-08-07T22:26:01;12.38;;;3.10;;
51489;SDS011;57752;53.574;9.736;2023-08-07T22:31:01;17.73;;;4.00;;
51489;SDS011;57752;53.574;9.736;2023-08-07T22:36:02;11.63;;;3.38;;
51489;SDS011;57752;53.574;9.736;2023-08-07T22:41:02;15.65;;;3.40;;
51489;SDS011;57752;53.574;9.736;2023-08-07T22:46:02;14.55;;;3.25;;
51489;SDS011;57752;53.574;9.736;2023-08-07T22:51:02;13.73;;;3.85;;
51489;SDS011;57752;53.574;9.736;2023-08-07T22:56:04;14.20;;;3.30;;
51489;SDS011;57752;53.574;9.736;2023-08-07T23:01:04;12.73;;;3.25;;
51489;SDS011;57752;53.574;9.736;2023-08-07T23:06:05;14.20;;;3.40;;
51489;SDS011;57752;53.574;9.736;2023-08-07T23:11:05;14.07;;;3.60;;
51489;SDS011;57752;53.574;9.736;2023-08-07T23:16:05;14.02;;;3.08;;
51489;SDS011;57752;53.574;9.736;2023-08-07T23:21:05;14.25;;;3.63;;
51489;SDS011;57752;53.574;9.736;2023-08-07T23:26:05;13.10;;;3.83;;
51489;SDS011;57752;53.574;9.736;2023-08-07T23:31:05;11.65;;;3.40;;
51489;SDS011;57752;53.574;9.736;2023-08-07T23:36:05;11.88;;;3.67;;
51489;SDS011;57752;53.574;9.736;2023-08-07T23:41:06;15.32;;;3.78;;
51489;SDS011;57752;53.574;9.736;2023-08-07T23:46:06;12.20;;;3.28;;
51489;SDS011;57752;53.574;9.736;2023-08-07T23:51:06;10.18;;;3.20;;
51489;SDS011;57752;53.574;9.736;2023-08-07T23:56:06;11.32;;;3.47;;
